createdAt,value
2023-02-15T00:04:25.592Z,6.10
2023-02-15T00:10:07.984Z,5.90
2023-02-15T00:15:49.752Z,7.00
2023-02-15T00:21:32.232Z,6.30
2023-02-15T00:27:13.726Z,5.80
2023-02-15T00:32:55.510Z,6.30
2023-02-15T00:38:36.972Z,6.10
2023-02-15T00:44:18.666Z,6.60
2023-02-15T00:50:00.913Z,6.90
2023-02-15T00:55:41.602Z,5.90
2023-02-15T01:01:23.369Z,6.40
2023-02-15T01:07:06.602Z,5.70
2023-02-15T01:12:48.361Z,5.70
2023-02-15T01:18:30.455Z,7.00
2023-02-15T01:24:14.406Z,7.20
2023-02-15T01:29:55.823Z,6.40
2023-02-15T01:35:37.982Z,7.20
2023-02-15T01:41:23.592Z,6.30
2023-02-15T01:47:05.080Z,7.30
2023-02-15T01:53:18.101Z,6.10
2023-02-15T01:59:01.439Z,7.20
2023-02-15T02:04:35.373Z,6.70
2023-02-15T02:10:18.959Z,6.90
2023-02-15T13:02:49.781Z,6.70
2023-02-15T13:08:23.037Z,6.50
2023-02-15T13:14:01.172Z,7.20
2023-02-15T13:19:49.418Z,7.50
2023-02-15T13:25:23.284Z,7.90
2023-02-15T13:30:48.388Z,7.00
2023-02-15T13:36:35.658Z,7.20
2023-02-15T13:42:05.556Z,6.50
2023-02-15T13:47:46.696Z,7.40
2023-02-15T13:59:05.280Z,7.70
2023-02-15T14:04:44.306Z,7.60
2023-02-15T14:10:21.354Z,7.40
2023-02-15T14:15:52.721Z,7.00
2023-02-15T14:21:19.377Z,7.70
2023-02-15T14:27:01.783Z,7.50
2023-02-15T14:32:47.482Z,7.80
2023-02-15T14:38:26.639Z,7.30
2023-02-15T14:44:29.252Z,6.50
2023-02-15T14:49:53.983Z,6.50
2023-02-15T14:55:37.412Z,7.20
2023-02-15T15:01:09.345Z,7.60
2023-02-15T15:06:35.027Z,8.00
2023-02-15T15:12:28.319Z,6.70
2023-02-15T15:18:12.074Z,7.80
2023-02-15T15:23:43.907Z,7.20
2023-02-15T15:34:41.789Z,21.90
2023-02-15T15:40:15.179Z,20.30
2023-02-15T15:45:54.984Z,21.90
2023-02-15T15:51:24.779Z,24.00
2023-02-15T15:57:41.691Z,21.30
2023-02-15T16:03:06.628Z,20.90
2023-02-15T16:08:33.568Z,22.40
2023-02-15T16:13:58.232Z,22.70
2023-02-15T16:19:25.776Z,20.80
2023-02-15T16:25:14.630Z,21.00
2023-02-15T16:30:40.999Z,22.30
2023-02-15T16:36:08.846Z,22.70
2023-02-15T16:41:33.113Z,20.20
2023-02-15T16:46:57.711Z,22.80
2023-02-15T16:52:25.974Z,22.20
2023-02-15T16:57:50.907Z,23.90
2023-02-15T17:03:26.006Z,23.60
2023-02-15T17:08:51.322Z,22.00
2023-02-15T17:14:22.325Z,22.00
2023-02-15T17:19:50.729Z,24.60
2023-02-15T17:25:45.107Z,22.60
2023-02-15T17:31:11.043Z,23.40
2023-02-15T17:51:33.238Z,26.30
2023-02-15T17:57:16.801Z,25.70
2023-02-15T18:03:16.819Z,25.60
2023-02-15T18:09:16.868Z,26.50
2023-02-15T18:14:58.564Z,27.20
2023-02-15T18:20:42.117Z,27.10
2023-02-15T18:26:24.710Z,30.10
2023-02-15T18:32:30.861Z,30.30
2023-02-15T18:38:12.969Z,33.60
2023-02-15T18:43:37.808Z,34.50
2023-02-15T18:49:02.127Z,34.70
2023-02-15T18:54:26.521Z,33.10
2023-02-15T18:59:51.917Z,30.20
2023-02-15T19:05:18.441Z,30.00
2023-02-15T19:10:43.013Z,27.80
2023-02-15T19:16:09.274Z,32.20
2023-02-15T19:21:34.367Z,25.90
2023-02-15T19:27:38.291Z,27.80
2023-02-15T19:33:21.837Z,31.70
2023-02-15T19:39:33.536Z,24.90
2023-02-15T19:45:33.209Z,24.60
2023-02-15T19:50:57.643Z,21.90
2023-02-15T19:56:57.846Z,20.50
2023-02-15T20:02:58.321Z,24.30
2023-02-15T20:08:23.973Z,25.10
2023-02-15T20:13:48.781Z,29.10
2023-02-15T20:19:16.123Z,22.50
2023-02-15T20:24:40.871Z,25.10
2023-02-15T20:30:07.426Z,21.40
2023-02-15T20:35:31.917Z,22.80
2023-02-15T20:41:15.519Z,22.10
2023-02-15T20:46:40.391Z,21.10
2023-02-15T20:52:05.630Z,19.80
2023-02-15T20:57:30.474Z,20.50
2023-02-15T21:02:56.239Z,19.00
2023-02-15T21:08:22.771Z,23.30
2023-02-15T21:13:49.321Z,21.00
2023-02-15T21:19:24.604Z,23.80
2023-02-15T21:24:52.840Z,20.90
2023-02-15T21:30:18.181Z,23.50
2023-02-15T21:35:43.978Z,24.30
2023-02-15T21:41:32.021Z,25.60
2023-02-15T21:47:15.880Z,21.20
2023-02-15T21:52:40.313Z,20.50
2023-02-15T21:58:04.810Z,19.40
2023-02-15T22:03:36.272Z,20.10
2023-02-15T22:09:00.502Z,18.90
2023-02-15T22:14:38.393Z,20.70
2023-02-15T22:20:04.092Z,17.90
2023-02-15T22:25:28.538Z,18.90
2023-02-15T22:30:52.574Z,16.50
2023-02-15T22:36:27.359Z,19.00
2023-02-15T22:41:52.371Z,18.40
2023-02-15T22:47:27.171Z,16.40
2023-02-15T22:52:52.120Z,13.70
2023-02-15T22:58:20.737Z,18.50
2023-02-15T23:03:44.896Z,17.00
2023-02-15T23:09:08.855Z,17.60
2023-02-15T23:14:34.967Z,18.40
2023-02-15T23:19:59.288Z,18.40
2023-02-15T23:25:28.280Z,15.80
2023-02-15T23:30:52.617Z,17.80
2023-02-15T23:36:36.073Z,15.00
2023-02-15T23:42:01.310Z,21.40
2023-02-15T23:47:47.773Z,23.50
2023-02-15T23:53:11.882Z,17.20
2023-02-15T23:58:38.184Z,20.00
